Fredonia, Arizona
Current Conditions -  °F | °C
As of 1:15 PM on Wednesday 26 Nov 2014 (Local Time) from KAZC Reporting Station
Clear Clear  
Wind Chill: 64°   Ceiling: Unl
Heat Index: 64°   Visibility: 10mi
Dew Point: 22°   Wind: 5mph
Humidity: 20%   Direction: 260°W
Pressure: 30.41"   Gusts: NA
Location:  36.95°N, 112.53°W
Report Text: KAZC 262015Z AUTO 26004KT 10SM CLR 18/M05 A3041 RMK AO2 T01771054
Loading
Personal Weather Stations






























Interactive Weather Map New forecast layout! Learn more

10-Day Weather Forecast

Advertisements
Track Severe Weather on mobile